Time;durP1;ratioP1;P1;durP2;ratioP2;P2;SDS_P1;SDS_P2;PMS_P1;PMS_P2;Temp;Humidity;BMP_temperature;BMP_pressure;BME280_temperature;BME280_humidity;BME280_pressure;Samples;Min_cycle;Max_cycle;Signal;HPM_P1;HPM_P2
2021/05/14 00:01:50;;;;;;;60.30;36.30;;;;;;;;;;4996366;28;39013;-77
2021/05/14 00:04:19;;;;;;;94.50;44.65;;;;;;;;;;5014298;28;37258;-77
2021/05/14 00:06:49;;;;;;;90.93;43.67;;;;;;;;;;5012234;28;39468;-77
2021/05/14 00:09:15;;;;;;;100.25;46.67;;;;;;;;;;5014693;28;39472;-77
2021/05/14 00:11:42;;;;;;;74.07;40.03;;;;;;;;;;5014876;28;38653;-77
2021/05/14 00:14:09;;;;;;;118.55;51.45;;;;;;;;;;5017283;28;37824;-77
2021/05/14 00:16:35;;;;;;;85.85;43.38;;;;;;;;;;5015037;28;39193;-77
2021/05/14 00:19:02;;;;;;;111.57;48.88;;;;;;;;;;5015439;28;40130;-77
2021/05/14 00:21:29;;;;;;;74.35;40.70;;;;;;;;;;5013888;28;49424;-77
2021/05/14 00:23:55;;;;;;;102.20;46.35;;;;;;;;;;5012964;28;38390;-77
2021/05/14 00:26:22;;;;;;;78.10;40.10;;;;;;;;;;5012644;28;39720;-77
2021/05/14 00:28:49;;;;;;;92.43;44.03;;;;;;;;;;5013050;28;39943;-77
2021/05/14 00:31:16;;;;;;;94.90;47.92;;;;;;;;;;5011937;28;39183;-77
2021/05/14 00:33:42;;;;;;;103.10;48.47;;;;;;;;;;5015686;28;37384;-77
2021/05/14 00:36:09;;;;;;;83.50;42.78;;;;;;;;;;5015059;28;38963;-77
2021/05/14 00:38:36;;;;;;;74.53;39.88;;;;;;;;;;4995629;28;37585;-77
2021/05/14 00:41:02;;;;;;;74.75;40.03;;;;;;;;;;5013822;28;39071;-77
2021/05/14 00:43:29;;;;;;;89.45;44.63;;;;;;;;;;4993067;28;36057;-77
2021/05/14 00:45:55;;;;;;;87.20;44.67;;;;;;;;;;4991534;28;37845;-76
2021/05/14 00:48:22;;;;;;;82.18;42.88;;;;;;;;;;4996478;28;40005;-77
2021/05/14 00:50:48;;;;;;;108.30;49.15;;;;;;;;;;4987976;28;39187;-77
2021/05/14 00:53:17;;;;;;;100.53;46.47;;;;;;;;;;4993035;28;37264;-77
2021/05/14 00:55:43;;;;;;;81.20;42.58;;;;;;;;;;4976128;28;37709;-77
2021/05/14 00:58:10;;;;;;;136.57;54.85;;;;;;;;;;4976154;28;38733;-77
2021/05/14 01:00:36;;;;;;;147.75;54.78;;;;;;;;;;4975198;28;39845;-77
2021/05/14 01:03:03;;;;;;;100.18;47.45;;;;;;;;;;5000941;28;38009;-77
2021/05/14 01:05:29;;;;;;;86.32;44.05;;;;;;;;;;4994413;28;42855;-77
2021/05/14 01:07:56;;;;;;;130.37;54.33;;;;;;;;;;5015807;28;39019;-77
2021/05/14 01:10:22;;;;;;;126.47;55.03;;;;;;;;;;5016642;28;38279;-77
2021/05/14 01:12:49;;;;;;;79.53;41.97;;;;;;;;;;4998117;28;37903;-77
2021/05/14 01:15:16;;;;;;;92.85;47.17;;;;;;;;;;5009435;28;40060;-76
2021/05/14 01:17:42;;;;;;;120.60;52.92;;;;;;;;;;4993001;28;39024;-77
2021/05/14 01:20:09;;;;;;;92.07;47.65;;;;;;;;;;5008905;28;37872;-77
2021/05/14 01:22:36;;;;;;;159.80;60.92;;;;;;;;;;5010508;28;38243;-77
2021/05/14 01:25:02;;;;;;;100.97;49.80;;;;;;;;;;5008422;28;39486;-77
2021/05/14 01:27:29;;;;;;;137.67;57.90;;;;;;;;;;5008678;28;49874;-77
2021/05/14 01:29:55;;;;;;;140.75;57.65;;;;;;;;;;5008756;28;36837;-77
2021/05/14 01:32:21;;;;;;;137.35;59.58;;;;;;;;;;5007825;28;37721;-77
2021/05/14 01:34:48;;;;;;;102.13;50.50;;;;;;;;;;4989132;28;40951;-77
2021/05/14 01:37:14;;;;;;;113.10;53.07;;;;;;;;;;4997704;28;38967;-77
2021/05/14 01:39:41;;;;;;;115.00;56.67;;;;;;;;;;5017474;28;38784;-77
2021/05/14 01:42:08;;;;;;;86.50;47.85;;;;;;;;;;5000117;28;35602;-77
2021/05/14 01:44:34;;;;;;;116.47;56.83;;;;;;;;;;5017159;28;37492;-77
2021/05/14 01:47:00;;;;;;;121.18;55.90;;;;;;;;;;5024034;28;38454;-77
2021/05/14 01:49:27;;;;;;;126.63;57.63;;;;;;;;;;5023094;28;46314;-76
2021/05/14 01:51:53;;;;;;;93.22;49.42;;;;;;;;;;5006876;28;37376;-77
2021/05/14 01:54:19;;;;;;;111.35;52.00;;;;;;;;;;5020237;28;39038;-77
2021/05/14 01:56:47;;;;;;;104.18;50.60;;;;;;;;;;5022099;28;38921;-77
2021/05/14 01:59:13;;;;;;;137.63;57.75;;;;;;;;;;5021736;28;38316;-77
2021/05/14 02:01:43;;;;;;;89.37;48.00;;;;;;;;;;5002458;28;36211;-77
2021/05/14 02:04:10;;;;;;;80.65;45.53;;;;;;;;;;5001814;28;38360;-77
2021/05/14 02:06:36;;;;;;;129.73;54.70;;;;;;;;;;5020080;28;38913;-77
2021/05/14 02:09:06;;;;;;;115.88;53.30;;;;;;;;;;5019224;28;38784;-77
2021/05/14 02:11:32;;;;;;;149.65;59.92;;;;;;;;;;5018079;28;38292;-77
2021/05/14 02:13:59;;;;;;;76.35;43.75;;;;;;;;;;5017880;28;40246;-76
2021/05/14 02:16:25;;;;;;;125.65;56.10;;;;;;;;;;4998732;28;38723;-77
2021/05/14 02:18:52;;;;;;;131.90;55.63;;;;;;;;;;5016311;28;38806;-77
2021/05/14 02:21:18;;;;;;;135.60;57.78;;;;;;;;;;4998893;28;35848;-77
2021/05/14 02:23:45;;;;;;;80.57;44.83;;;;;;;;;;4999435;28;38259;-77
2021/05/14 02:26:11;;;;;;;117.97;55.07;;;;;;;;;;5015423;28;38465;-77
2021/05/14 02:28:38;;;;;;;111.00;53.53;;;;;;;;;;5017993;28;39153;-76
2021/05/14 02:31:04;;;;;;;94.97;50.03;;;;;;;;;;5014915;28;37224;-75
2021/05/14 02:33:30;;;;;;;94.67;46.83;;;;;;;;;;4991782;28;39745;-76
2021/05/14 02:35:57;;;;;;;92.30;48.57;;;;;;;;;;4996656;28;38996;-78
2021/05/14 02:38:23;;;;;;;103.00;49.13;;;;;;;;;;4997388;28;38515;-76
2021/05/14 02:40:50;;;;;;;154.03;60.47;;;;;;;;;;4978272;28;35972;-77
2021/05/14 02:43:16;;;;;;;119.07;52.80;;;;;;;;;;5001550;28;38911;-77
2021/05/14 02:45:43;;;;;;;89.47;46.43;;;;;;;;;;4998665;28;37619;-77
2021/05/14 02:48:10;;;;;;;75.80;42.77;;;;;;;;;;5000745;28;20047;-77
2021/05/14 02:50:37;;;;;;;84.68;45.17;;;;;;;;;;5016541;28;38365;-77
2021/05/14 02:53:04;;;;;;;120.17;51.23;;;;;;;;;;4996868;28;40097;-77
2021/05/14 02:55:30;;;;;;;112.90;52.20;;;;;;;;;;4998152;28;37479;-77
2021/05/14 02:57:57;;;;;;;100.90;47.93;;;;;;;;;;5017491;28;38197;-77
2021/05/14 03:00:23;;;;;;;86.13;44.43;;;;;;;;;;4993049;28;36525;-77
2021/05/14 03:02:50;;;;;;;77.10;44.17;;;;;;;;;;4978519;28;38140;-77
2021/05/14 03:05:16;;;;;;;119.33;51.47;;;;;;;;;;4976255;28;37660;-77
2021/05/14 03:07:43;;;;;;;74.57;42.77;;;;;;;;;;4995331;28;38106;-77
2021/05/14 03:10:10;;;;;;;67.70;40.07;;;;;;;;;;4995337;28;37160;-77
2021/05/14 03:12:36;;;;;;;94.50;48.13;;;;;;;;;;4977454;28;40294;-78
2021/05/14 03:15:04;;;;;;;111.07;51.17;;;;;;;;;;4993771;28;39488;-77
2021/05/14 03:17:30;;;;;;;88.10;45.97;;;;;;;;;;4978031;28;47449;-77
2021/05/14 03:19:56;;;;;;;118.53;53.40;;;;;;;;;;4995995;28;37920;-75
2021/05/14 03:22:23;;;;;;;103.57;49.07;;;;;;;;;;4995720;28;39606;-76
2021/05/14 03:24:49;;;;;;;130.90;53.10;;;;;;;;;;4978232;28;37502;-75
2021/05/14 03:27:15;;;;;;;141.37;55.87;;;;;;;;;;4975241;28;38551;-77
2021/05/14 03:29:42;;;;;;;102.63;48.17;;;;;;;;;;4993461;28;37035;-76
2021/05/14 03:32:08;;;;;;;93.27;46.60;;;;;;;;;;4973866;28;39735;-76
2021/05/14 03:34:35;;;;;;;136.40;53.13;;;;;;;;;;4977245;28;39394;-76
2021/05/14 03:37:01;;;;;;;99.25;49.25;;;;;;;;;;4994884;28;38664;-76
2021/05/14 03:39:28;;;;;;;108.00;49.17;;;;;;;;;;4992037;28;47325;-75
2021/05/14 03:44:39;;;;;;;121.57;51.20;;;;;;;;;;5009232;28;49954;-76
2021/05/14 03:47:06;;;;;;;70.75;40.13;;;;;;;;;;4996283;28;37463;-76
2021/05/14 03:49:36;;;;;;;134.83;55.07;;;;;;;;;;4994841;28;37905;-76
2021/05/14 03:52:10;;;;;;;103.33;49.23;;;;;;;;;;4996769;28;39835;-76
2021/05/14 03:54:37;;;;;;;117.47;52.00;;;;;;;;;;4979819;28;37411;-76
2021/05/14 03:57:04;;;;;;;73.67;41.77;;;;;;;;;;4994554;28;38377;-76
2021/05/14 03:59:31;;;;;;;132.50;53.63;;;;;;;;;;4977997;28;36024;-75
2021/05/14 04:01:57;;;;;;;82.03;44.07;;;;;;;;;;4994075;28;39140;-78
2021/05/14 04:04:24;;;;;;;121.47;50.87;;;;;;;;;;4977422;28;39225;-75
2021/05/14 04:06:51;;;;;;;122.70;52.60;;;;;;;;;;4995184;28;38352;-76
2021/05/14 04:09:30;;;;;;;110.40;49.43;;;;;;;;;;4995344;28;38443;-76
2021/05/14 04:14:35;;;;;;;71.73;40.27;;;;;;;;;;4994864;28;50177;-75
2021/05/14 04:17:02;;;;;;;71.72;40.35;;;;;;;;;;4974548;28;39113;-76
2021/05/14 04:19:29;;;;;;;95.57;46.88;;;;;;;;;;4977296;28;47480;-76
2021/05/14 04:21:56;;;;;;;89.60;46.17;;;;;;;;;;4995454;28;39007;-76
2021/05/14 04:24:23;;;;;;;104.17;48.27;;;;;;;;;;4973230;28;39926;-76
2021/05/14 04:26:51;;;;;;;110.90;49.97;;;;;;;;;;4957292;28;39772;-76
2021/05/14 04:29:17;;;;;;;124.17;50.13;;;;;;;;;;4974752;28;37951;-76
2021/05/14 04:31:45;;;;;;;110.07;50.58;;;;;;;;;;4972494;28;38604;-75
2021/05/14 04:34:11;;;;;;;159.10;54.95;;;;;;;;;;4955975;28;38571;-76
2021/05/14 04:36:39;;;;;;;106.75;49.35;;;;;;;;;;4987432;28;38630;-76
2021/05/14 04:39:07;;;;;;;143.98;53.83;;;;;;;;;;4974644;28;37239;-76
2021/05/14 04:41:33;;;;;;;96.72;46.55;;;;;;;;;;4977404;28;38773;-76
2021/05/14 04:44:00;;;;;;;80.90;42.83;;;;;;;;;;5008376;28;38907;-76
2021/05/14 04:46:26;;;;;;;105.45;48.70;;;;;;;;;;4998568;28;37698;-76
2021/05/14 04:48:53;;;;;;;74.03;41.72;;;;;;;;;;5018128;28;37104;-77
2021/05/14 04:51:20;;;;;;;75.18;41.42;;;;;;;;;;4998436;28;39651;-76
2021/05/14 04:53:47;;;;;;;91.45;47.05;;;;;;;;;;5006966;28;39597;-76
2021/05/14 04:56:14;;;;;;;105.82;51.53;;;;;;;;;;4975297;28;39024;-76
2021/05/14 04:58:44;;;;;;;132.38;55.33;;;;;;;;;;4996036;28;36746;-75
2021/05/14 05:01:13;;;;;;;151.13;55.67;;;;;;;;;;4994719;28;40789;-75
2021/05/14 05:03:42;;;;;;;117.03;47.80;;;;;;;;;;4978917;28;38066;-75
2021/05/14 05:06:09;;;;;;;70.68;40.15;;;;;;;;;;4976265;28;36961;-75
2021/05/14 05:08:35;;;;;;;66.93;41.35;;;;;;;;;;4997097;28;37657;-76
2021/05/14 05:11:02;;;;;;;63.15;36.67;;;;;;;;;;4977780;28;39680;-75
2021/05/14 05:13:28;;;;;;;99.63;47.20;;;;;;;;;;4979119;28;40440;-77
2021/05/14 05:15:54;;;;;;;81.35;43.47;;;;;;;;;;4996259;28;38269;-75
2021/05/14 05:18:21;;;;;;;103.97;44.30;;;;;;;;;;4979014;28;38778;-76
2021/05/14 05:20:47;;;;;;;113.90;45.08;;;;;;;;;;4977087;28;39159;-76
2021/05/14 05:23:13;;;;;;;95.75;46.17;;;;;;;;;;4978066;28;39498;-75
2021/05/14 05:25:40;;;;;;;106.75;48.05;;;;;;;;;;4996601;28;38239;-76
2021/05/14 05:28:06;;;;;;;80.90;39.20;;;;;;;;;;4976678;28;36601;-76
2021/05/14 05:30:33;;;;;;;120.25;49.45;;;;;;;;;;4994665;28;39035;-76
2021/05/14 05:32:59;;;;;;;89.90;43.30;;;;;;;;;;4977147;28;39798;-75
2021/05/14 05:35:26;;;;;;;101.03;44.00;;;;;;;;;;4976998;28;39067;-76
2021/05/14 05:37:54;;;;;;;104.35;44.67;;;;;;;;;;4974500;28;36515;-75
2021/05/14 05:40:21;;;;;;;94.70;43.67;;;;;;;;;;4955896;28;39813;-77
2021/05/14 05:42:47;;;;;;;115.20;50.30;;;;;;;;;;4964431;28;39864;-78
2021/05/14 05:45:14;;;;;;;93.82;44.72;;;;;;;;;;4998121;28;39346;-77
2021/05/14 05:47:40;;;;;;;144.63;54.03;;;;;;;;;;5002036;28;36592;-77
2021/05/14 05:50:08;;;;;;;126.80;53.08;;;;;;;;;;4971965;28;37621;-76
2021/05/14 05:52:34;;;;;;;138.73;53.38;;;;;;;;;;4980533;28;39142;-76
2021/05/14 05:55:02;;;;;;;116.32;51.72;;;;;;;;;;4962428;28;39385;-75
2021/05/14 05:57:29;;;;;;;62.75;39.40;;;;;;;;;;4979442;28;49588;-76
2021/05/14 05:59:55;;;;;;;63.70;38.65;;;;;;;;;;4960735;28;39624;-76
2021/05/14 06:02:22;;;;;;;58.88;36.55;;;;;;;;;;4958519;28;40204;-76
2021/05/14 06:04:49;;;;;;;58.47;35.55;;;;;;;;;;4978125;28;39208;-76
2021/05/14 06:07:16;;;;;;;71.80;40.88;;;;;;;;;;4975696;28;37924;-76
2021/05/14 06:09:42;;;;;;;55.72;35.03;;;;;;;;;;4995314;28;39606;-76
2021/05/14 06:12:08;;;;;;;54.33;36.03;;;;;;;;;;4976151;28;37345;-76
2021/05/14 06:14:35;;;;;;;57.80;36.33;;;;;;;;;;4995155;28;39223;-75
2021/05/14 06:17:01;;;;;;;60.92;38.17;;;;;;;;;;4976932;28;39007;-76
2021/05/14 06:19:31;;;;;;;55.00;36.08;;;;;;;;;;4977860;28;47340;-76
2021/05/14 06:21:57;;;;;;;73.75;42.50;;;;;;;;;;4995060;28;40058;-76
2021/05/14 06:24:24;;;;;;;73.15;41.67;;;;;;;;;;4994836;28;39852;-75
2021/05/14 06:26:50;;;;;;;61.00;38.13;;;;;;;;;;4994450;28;37624;-75
2021/05/14 06:29:17;;;;;;;71.32;42.58;;;;;;;;;;4993893;28;39634;-76
2021/05/14 06:31:43;;;;;;;61.55;40.13;;;;;;;;;;4993270;28;39525;-75
2021/05/14 06:34:10;;;;;;;58.60;36.78;;;;;;;;;;4974589;28;38264;-75
2021/05/14 06:36:36;;;;;;;65.68;40.72;;;;;;;;;;4992552;28;37576;-75
2021/05/14 06:39:05;;;;;;;56.78;38.38;;;;;;;;;;4975823;28;40448;-75
2021/05/14 06:41:32;;;;;;;52.63;36.85;;;;;;;;;;4972596;28;39278;-75
2021/05/14 06:43:58;;;;;;;57.92;39.20;;;;;;;;;;4978975;28;39545;-76
2021/05/14 06:46:25;;;;;;;55.70;38.72;;;;;;;;;;4991111;28;37042;-75
2021/05/14 06:48:51;;;;;;;58.55;39.67;;;;;;;;;;4970755;28;39799;-76
2021/05/14 06:51:18;;;;;;;51.95;38.13;;;;;;;;;;4964340;28;37149;-75
2021/05/14 06:53:46;;;;;;;57.03;39.80;;;;;;;;;;4995287;28;37874;-76
2021/05/14 06:56:13;;;;;;;60.70;42.53;;;;;;;;;;4975389;28;38636;-76
2021/05/14 06:58:39;;;;;;;60.72;41.97;;;;;;;;;;4994303;28;39349;-76
2021/05/14 07:01:06;;;;;;;58.92;40.63;;;;;;;;;;4991944;28;39843;-76
2021/05/14 07:03:32;;;;;;;60.70;42.65;;;;;;;;;;4993937;28;38813;-75
2021/05/14 07:05:59;;;;;;;61.85;43.75;;;;;;;;;;4974089;28;37174;-74
2021/05/14 07:08:25;;;;;;;57.97;41.40;;;;;;;;;;4989559;28;38845;-76
2021/05/14 07:10:51;;;;;;;51.67;38.92;;;;;;;;;;4989065;28;38728;-76
2021/05/14 07:13:18;;;;;;;50.17;37.72;;;;;;;;;;4989695;28;39434;-76
2021/05/14 07:15:44;;;;;;;50.15;37.45;;;;;;;;;;4970253;28;37380;-75
2021/05/14 07:18:10;;;;;;;51.95;38.47;;;;;;;;;;4988534;28;39169;-77
2021/05/14 07:20:37;;;;;;;48.42;36.75;;;;;;;;;;4970496;28;38869;-75
2021/05/14 07:23:03;;;;;;;50.75;37.50;;;;;;;;;;4968025;28;38760;-75
2021/05/14 07:25:30;;;;;;;51.97;38.33;;;;;;;;;;4968310;28;48240;-75
2021/05/14 07:27:57;;;;;;;50.75;38.92;;;;;;;;;;4968407;28;38646;-76
2021/05/14 07:30:23;;;;;;;50.40;38.30;;;;;;;;;;4952449;28;37669;-76
2021/05/14 07:32:50;;;;;;;48.97;38.42;;;;;;;;;;4953188;28;39597;-76
2021/05/14 07:35:16;;;;;;;51.67;39.03;;;;;;;;;;4969481;28;37781;-75
2021/05/14 07:37:43;;;;;;;43.22;35.72;;;;;;;;;;4973874;28;40462;-77
2021/05/14 07:40:10;;;;;;;46.65;36.65;;;;;;;;;;4987780;28;38872;-75
2021/05/14 07:42:36;;;;;;;43.72;34.85;;;;;;;;;;5009615;28;38556;-77
2021/05/14 07:45:03;;;;;;;44.70;36.05;;;;;;;;;;4989957;28;36390;-78
2021/05/14 07:47:29;;;;;;;41.05;33.90;;;;;;;;;;5007040;28;46999;-77
2021/05/14 07:49:56;;;;;;;41.17;33.72;;;;;;;;;;5013980;28;38666;-76
2021/05/14 07:52:22;;;;;;;38.15;30.67;;;;;;;;;;4992759;28;39151;-77
2021/05/14 07:54:48;;;;;;;38.78;30.27;;;;;;;;;;4993271;28;38791;-77
2021/05/14 07:57:15;;;;;;;39.83;31.17;;;;;;;;;;4991279;28;38947;-77
2021/05/14 07:59:41;;;;;;;36.22;28.83;;;;;;;;;;4992384;28;39164;-77
2021/05/14 08:02:08;;;;;;;38.85;30.13;;;;;;;;;;5007807;28;38513;-77
2021/05/14 08:04:34;;;;;;;33.00;26.95;;;;;;;;;;4989585;28;38707;-77
2021/05/14 08:07:00;;;;;;;34.53;27.73;;;;;;;;;;4990874;28;38726;-77
2021/05/14 08:09:27;;;;;;;34.10;28.15;;;;;;;;;;4988723;28;39229;-77
2021/05/14 08:11:53;;;;;;;33.58;27.40;;;;;;;;;;4989939;28;38925;-77
2021/05/14 08:14:20;;;;;;;35.13;28.77;;;;;;;;;;5007333;28;37616;-77
2021/05/14 08:16:47;;;;;;;39.25;29.52;;;;;;;;;;5006435;28;38945;-77
2021/05/14 08:19:14;;;;;;;32.65;27.92;;;;;;;;;;4992629;28;37489;-77
2021/05/14 08:21:41;;;;;;;37.05;30.58;;;;;;;;;;5011151;28;38525;-76
2021/05/14 08:24:08;;;;;;;34.38;28.48;;;;;;;;;;5011995;28;37809;-77
2021/05/14 08:26:34;;;;;;;35.70;27.20;;;;;;;;;;4994579;28;39345;-77
2021/05/14 08:29:01;;;;;;;30.77;27.40;;;;;;;;;;4993889;28;40210;-77
2021/05/14 08:31:27;;;;;;;34.45;28.58;;;;;;;;;;4998794;28;37471;-76
2021/05/14 08:33:54;;;;;;;37.53;31.17;;;;;;;;;;5014190;28;37702;-76
2021/05/14 08:36:20;;;;;;;37.40;30.75;;;;;;;;;;4993058;28;37702;-77
2021/05/14 08:38:47;;;;;;;33.72;29.73;;;;;;;;;;5013141;28;39612;-77
2021/05/14 08:41:13;;;;;;;35.08;29.00;;;;;;;;;;4992976;28;37222;-77
2021/05/14 08:43:40;;;;;;;33.72;28.73;;;;;;;;;;5018234;28;36976;-76
2021/05/14 08:46:06;;;;;;;34.47;28.83;;;;;;;;;;5012770;28;37641;-77
2021/05/14 08:48:36;;;;;;;30.73;26.65;;;;;;;;;;5031322;28;38454;-77
2021/05/14 08:51:06;;;;;;;35.75;27.42;;;;;;;;;;5011959;28;38790;-77
2021/05/14 08:53:33;;;;;;;31.35;24.98;;;;;;;;;;5014239;28;37592;-77
2021/05/14 08:56:00;;;;;;;27.10;23.88;;;;;;;;;;5022234;28;40322;-77
2021/05/14 08:58:27;;;;;;;27.55;22.77;;;;;;;;;;5010981;28;39625;-76
2021/05/14 09:00:53;;;;;;;29.67;24.42;;;;;;;;;;4993267;28;39721;-77
2021/05/14 09:03:20;;;;;;;28.05;24.73;;;;;;;;;;4990475;28;37785;-77
2021/05/14 09:05:48;;;;;;;30.85;25.77;;;;;;;;;;4989695;28;38690;-77
2021/05/14 09:08:24;;;;;;;28.55;23.00;;;;;;;;;;4974547;28;39835;-76
2021/05/14 09:10:51;;;;;;;28.70;23.73;;;;;;;;;;4973694;28;37082;-77
2021/05/14 09:13:17;;;;;;;26.88;23.73;;;;;;;;;;5002228;28;36986;-77
2021/05/14 09:15:44;;;;;;;27.67;23.63;;;;;;;;;;4992619;28;39710;-77
2021/05/14 09:18:14;;;;;;;27.48;22.30;;;;;;;;;;4992111;28;38747;-77
2021/05/14 09:20:42;;;;;;;24.58;22.02;;;;;;;;;;4993087;28;39666;-77
2021/05/14 09:23:21;;;;;;;25.00;22.30;;;;;;;;;;5009552;28;37383;-77
2021/05/14 09:25:50;;;;;;;25.92;23.15;;;;;;;;;;5010082;28;39561;-77
2021/05/14 09:28:34;;;;;;;27.10;21.98;;;;;;;;;;4992610;28;38693;-77
2021/05/14 09:31:14;;;;;;;17.95;15.77;;;;;;;;;;5011272;28;38508;-76
2021/05/14 09:33:41;;;;;;;21.52;19.27;;;;;;;;;;5013477;28;48754;-76
2021/05/14 09:36:19;;;;;;;25.52;22.15;;;;;;;;;;4995385;28;38281;-76
2021/05/14 09:38:46;;;;;;;23.27;20.77;;;;;;;;;;5012809;28;39229;-76
2021/05/14 09:41:31;;;;;;;22.92;20.50;;;;;;;;;;4991920;28;39535;-77
2021/05/14 09:43:59;;;;;;;22.63;19.85;;;;;;;;;;5004252;28;36497;-77
2021/05/14 09:46:25;;;;;;;20.80;18.05;;;;;;;;;;5025108;28;39159;-77
2021/05/14 09:48:56;;;;;;;19.83;17.25;;;;;;;;;;5017972;28;39584;-76
2021/05/14 09:51:22;;;;;;;20.73;17.77;;;;;;;;;;5017394;28;38311;-76
2021/05/14 09:53:48;;;;;;;20.25;17.55;;;;;;;;;;5013503;28;37028;-76
2021/05/14 09:56:33;;;;;;;18.85;16.52;;;;;;;;;;5012381;28;39417;-76
2021/05/14 09:59:02;;;;;;;23.67;17.92;;;;;;;;;;5012283;28;38273;-77
2021/05/14 10:01:29;;;;;;;21.98;17.70;;;;;;;;;;5009846;28;38164;-77
2021/05/14 10:03:56;;;;;;;18.88;16.83;;;;;;;;;;5011128;28;37457;-76
2021/05/14 10:06:23;;;;;;;20.92;17.85;;;;;;;;;;4992015;28;37780;-76
2021/05/14 10:08:51;;;;;;;20.13;17.52;;;;;;;;;;4993579;28;38825;-76
2021/05/14 10:11:21;;;;;;;20.48;16.02;;;;;;;;;;4996814;28;39052;-77
2021/05/14 10:13:48;;;;;;;19.38;16.70;;;;;;;;;;5016197;28;38153;-76
2021/05/14 10:16:15;;;;;;;17.55;14.25;;;;;;;;;;4997544;28;38559;-76
2021/05/14 10:18:46;;;;;;;18.95;15.05;;;;;;;;;;4999864;28;38151;-76
2021/05/14 10:21:14;;;;;;;18.92;15.52;;;;;;;;;;4991668;28;39693;-76
2021/05/14 10:23:44;;;;;;;15.75;14.02;;;;;;;;;;4991500;28;35561;-77
2021/05/14 10:26:11;;;;;;;15.15;12.80;;;;;;;;;;5009564;28;38721;-77
2021/05/14 10:28:44;;;;;;;13.13;11.13;;;;;;;;;;4992597;28;40044;-76
2021/05/14 10:31:14;;;;;;;12.38;10.85;;;;;;;;;;5009692;28;39163;-77
2021/05/14 10:33:42;;;;;;;18.80;13.77;;;;;;;;;;5011633;28;37349;-76
2021/05/14 10:36:12;;;;;;;13.77;11.93;;;;;;;;;;5009202;28;39138;-77
2021/05/14 10:38:38;;;;;;;14.32;12.10;;;;;;;;;;4991010;28;39187;-75
2021/05/14 10:41:24;;;;;;;12.98;11.13;;;;;;;;;;5009274;28;39800;-76
2021/05/14 10:44:02;;;;;;;13.30;10.70;;;;;;;;;;5019737;28;37422;-76
2021/05/14 10:46:29;;;;;;;11.63;10.27;;;;;;;;;;5029029;28;48746;-76
2021/05/14 10:49:04;;;;;;;13.13;10.77;;;;;;;;;;5030890;28;38832;-76
2021/05/14 10:51:49;;;;;;;11.45;10.10;;;;;;;;;;5009571;28;47372;-76
2021/05/14 10:54:34;;;;;;;13.50;12.07;;;;;;;;;;5008174;28;38085;-76
2021/05/14 10:57:02;;;;;;;15.63;12.38;;;;;;;;;;5009711;28;40666;-76
2021/05/14 10:59:33;;;;;;;15.90;14.15;;;;;;;;;;4991153;28;47058;-76
2021/05/14 11:02:00;;;;;;;16.23;13.88;;;;;;;;;;4991123;28;38913;-76
2021/05/14 11:04:27;;;;;;;15.07;13.57;;;;;;;;;;4989711;28;36180;-76
2021/05/14 11:06:54;;;;;;;17.17;14.48;;;;;;;;;;4990569;28;38949;-76
2021/05/14 11:09:24;;;;;;;16.15;14.43;;;;;;;;;;4989897;28;37204;-76
2021/05/14 11:11:55;;;;;;;18.63;13.85;;;;;;;;;;5006730;28;39375;-75
2021/05/14 11:14:21;;;;;;;15.63;14.00;;;;;;;;;;5008699;28;37321;-75
2021/05/14 11:16:57;;;;;;;16.63;14.70;;;;;;;;;;5008276;28;38706;-76
2021/05/14 11:19:27;;;;;;;15.55;13.98;;;;;;;;;;5007335;28;38685;-75
2021/05/14 11:22:00;;;;;;;15.50;13.90;;;;;;;;;;5008290;28;38198;-76
2021/05/14 11:24:31;;;;;;;15.95;13.18;;;;;;;;;;4989975;28;38708;-76
2021/05/14 11:27:03;;;;;;;14.20;12.73;;;;;;;;;;4989238;28;39654;-75
2021/05/14 11:29:35;;;;;;;17.23;14.75;;;;;;;;;;5012477;28;48634;-76
2021/05/14 11:32:14;;;;;;;18.10;16.25;;;;;;;;;;5013594;28;39153;-75
2021/05/14 11:34:54;;;;;;;16.38;14.77;;;;;;;;;;5007659;28;36584;-75
2021/05/14 11:37:21;;;;;;;15.02;13.35;;;;;;;;;;5006098;28;39588;-75
2021/05/14 11:39:48;;;;;;;16.50;14.73;;;;;;;;;;5027410;28;38292;-76
2021/05/14 11:42:18;;;;;;;15.93;14.32;;;;;;;;;;5026935;28;38354;-76
2021/05/14 11:44:56;;;;;;;15.70;13.98;;;;;;;;;;5001367;28;37510;-75
2021/05/14 11:47:22;;;;;;;17.40;14.23;;;;;;;;;;4990051;28;39223;-76
2021/05/14 11:49:49;;;;;;;15.43;13.90;;;;;;;;;;4992730;28;38312;-76
2021/05/14 11:52:15;;;;;;;15.15;13.40;;;;;;;;;;4995045;28;37049;-77
2021/05/14 11:54:42;;;;;;;22.55;15.63;;;;;;;;;;5010179;28;36888;-77
2021/05/14 11:57:08;;;;;;;16.40;14.18;;;;;;;;;;5010227;28;38592;-78
2021/05/14 11:59:44;;;;;;;18.08;14.07;;;;;;;;;;4994191;28;38852;-77
2021/05/14 12:02:30;;;;;;;20.65;15.32;;;;;;;;;;5018281;28;38543;-77
2021/05/14 12:04:56;;;;;;;17.90;13.45;;;;;;;;;;5008949;28;37297;-76
2021/05/14 12:07:23;;;;;;;19.13;14.40;;;;;;;;;;5009250;28;40641;-76
2021/05/14 12:09:57;;;;;;;19.35;15.57;;;;;;;;;;5007977;28;38630;-77
2021/05/14 12:12:23;;;;;;;19.63;14.60;;;;;;;;;;5005649;28;40008;-77
2021/05/14 12:14:50;;;;;;;20.60;15.70;;;;;;;;;;5007281;28;37353;-77
2021/05/14 12:17:16;;;;;;;19.33;15.00;;;;;;;;;;5007648;28;39173;-77
2021/05/14 12:19:48;;;;;;;22.73;15.40;;;;;;;;;;5007489;28;39145;-77
2021/05/14 12:22:15;;;;;;;22.33;14.90;;;;;;;;;;5006634;28;37962;-77
2021/05/14 12:24:44;;;;;;;18.88;14.43;;;;;;;;;;5007913;28;38207;-76
2021/05/14 12:27:11;;;;;;;25.15;15.73;;;;;;;;;;5007524;28;39565;-76
2021/05/14 12:29:37;;;;;;;20.17;14.95;;;;;;;;;;4989089;28;40199;-75
2021/05/14 12:32:07;;;;;;;18.58;14.13;;;;;;;;;;4977994;28;38624;-76
2021/05/14 12:34:33;;;;;;;22.00;13.55;;;;;;;;;;4988869;28;36957;-78
2021/05/14 12:37:00;;;;;;;19.58;13.32;;;;;;;;;;5013310;28;40344;-76
2021/05/14 12:39:27;;;;;;;15.88;14.00;;;;;;;;;;5007589;28;38815;-76
2021/05/14 12:41:59;;;;;;;16.48;13.13;;;;;;;;;;4989812;28;38493;-76
2021/05/14 12:44:32;;;;;;;15.77;13.32;;;;;;;;;;4989426;28;37706;-77
2021/05/14 12:47:12;;;;;;;22.95;13.90;;;;;;;;;;5008314;28;39081;-76
2021/05/14 12:49:48;;;;;;;18.90;13.50;;;;;;;;;;5011256;28;48863;-77
2021/05/14 12:52:20;;;;;;;17.45;12.68;;;;;;;;;;4990447;28;39995;-75
2021/05/14 12:54:54;;;;;;;18.27;13.32;;;;;;;;;;4979111;28;38262;-77
2021/05/14 12:57:29;;;;;;;19.73;13.98;;;;;;;;;;4970210;28;39799;-75
2021/05/14 12:59:56;;;;;;;17.35;12.05;;;;;;;;;;4971052;28;39688;-76
2021/05/14 13:02:24;;;;;;;16.02;12.18;;;;;;;;;;4988355;28;38349;-76
2021/05/14 13:04:59;;;;;;;17.65;12.13;;;;;;;;;;4975181;28;38466;-76
2021/05/14 13:07:26;;;;;;;18.20;12.40;;;;;;;;;;4974133;28;39716;-76
2021/05/14 13:09:53;;;;;;;17.77;12.65;;;;;;;;;;4975146;28;39147;-75
2021/05/14 13:12:19;;;;;;;15.30;11.63;;;;;;;;;;5004483;28;38660;-77
2021/05/14 13:14:46;;;;;;;16.23;11.35;;;;;;;;;;4975337;28;35867;-76
2021/05/14 13:17:12;;;;;;;18.83;12.05;;;;;;;;;;4972550;28;37719;-75
2021/05/14 13:19:39;;;;;;;11.75;9.70;;;;;;;;;;4974500;28;39846;-76
2021/05/14 13:22:06;;;;;;;17.85;9.73;;;;;;;;;;4990799;28;38476;-76
2021/05/14 13:24:32;;;;;;;16.58;10.15;;;;;;;;;;4972929;28;37045;-75
2021/05/14 13:26:58;;;;;;;14.57;10.88;;;;;;;;;;4991157;28;38822;-76
2021/05/14 13:29:25;;;;;;;13.60;10.60;;;;;;;;;;4987894;28;38744;-76
2021/05/14 13:31:52;;;;;;;13.90;10.55;;;;;;;;;;5000123;28;39096;-76
2021/05/14 13:34:18;;;;;;;13.25;10.88;;;;;;;;;;4991557;28;37926;-76
2021/05/14 13:36:45;;;;;;;12.70;10.43;;;;;;;;;;5007313;28;40077;-76
2021/05/14 13:39:11;;;;;;;12.15;10.25;;;;;;;;;;5029073;28;39436;-76
2021/05/14 13:41:38;;;;;;;13.90;10.57;;;;;;;;;;5029187;28;38369;-76
2021/05/14 13:44:05;;;;;;;13.50;11.02;;;;;;;;;;5028758;28;37979;-76
2021/05/14 13:46:31;;;;;;;13.00;10.68;;;;;;;;;;4986817;28;40092;-76
2021/05/14 13:48:58;;;;;;;13.70;10.32;;;;;;;;;;4991361;28;38700;-76
2021/05/14 13:51:24;;;;;;;13.98;10.55;;;;;;;;;;4987629;28;39261;-76
2021/05/14 13:53:51;;;;;;;10.50;9.02;;;;;;;;;;4994967;28;37390;-76
2021/05/14 13:56:17;;;;;;;12.98;10.02;;;;;;;;;;4994648;28;40735;-76
2021/05/14 13:58:43;;;;;;;15.35;10.63;;;;;;;;;;4991032;28;39456;-76
2021/05/14 14:01:10;;;;;;;12.50;8.65;;;;;;;;;;5005654;28;37614;-76
2021/05/14 14:03:38;;;;;;;12.60;8.98;;;;;;;;;;5012171;28;36845;-77
2021/05/14 14:06:06;;;;;;;11.10;9.15;;;;;;;;;;4993234;28;39929;-76
2021/05/14 14:08:33;;;;;;;13.10;8.55;;;;;;;;;;4994451;28;39347;-77
2021/05/14 14:10:59;;;;;;;12.48;8.75;;;;;;;;;;4993539;28;38947;-76
2021/05/14 14:13:26;;;;;;;11.48;8.07;;;;;;;;;;5011438;28;37059;-77
2021/05/14 14:15:54;;;;;;;9.60;7.72;;;;;;;;;;4992987;28;39852;-77
2021/05/14 14:18:20;;;;;;;11.90;8.57;;;;;;;;;;4994992;28;40168;-77
2021/05/14 14:20:47;;;;;;;12.57;9.20;;;;;;;;;;4994491;28;36928;-77
2021/05/14 14:23:13;;;;;;;12.48;9.43;;;;;;;;;;4994522;28;37601;-77